sensor_id;sensor_type;location;lat;lon;timestamp;pressure;altitude;pressure_sealevel;temperature;humidity
55373;BME280;41249;47.838;16.490;2023-03-04T00:01:24;99563.28;;;-1.61;60.99
55373;BME280;41249;47.838;16.490;2023-03-04T00:03:51;99567.19;;;-1.54;60.90
55373;BME280;41249;47.838;16.490;2023-03-04T00:06:17;99576.22;;;-1.67;61.35
55373;BME280;41249;47.838;16.490;2023-03-04T00:08:44;99563.19;;;-1.79;61.42
55373;BME280;41249;47.838;16.490;2023-03-04T00:11:10;99562.88;;;-1.77;61.54
55373;BME280;41249;47.838;16.490;2023-03-04T00:13:37;99574.94;;;-1.92;61.32
55373;BME280;41249;47.838;16.490;2023-03-04T00:16:04;99559.44;;;-2.05;62.37
55373;BME280;41249;47.838;16.490;2023-03-04T00:18:30;99558.34;;;-2.04;63.82
55373;BME280;41249;47.838;16.490;2023-03-04T00:20:57;99560.13;;;-2.21;63.32
55373;BME280;41249;47.838;16.490;2023-03-04T00:23:24;99558.25;;;-2.34;63.34
55373;BME280;41249;47.838;16.490;2023-03-04T00:25:50;99556.38;;;-2.25;63.66
55373;BME280;41249;47.838;16.490;2023-03-04T00:28:17;99551.47;;;-2.23;63.83
55373;BME280;41249;47.838;16.490;2023-03-04T00:30:44;99553.81;;;-2.08;64.27
55373;BME280;41249;47.838;16.490;2023-03-04T00:33:10;99549.25;;;-2.21;63.81
55373;BME280;41249;47.838;16.490;2023-03-04T00:35:37;99553.03;;;-2.45;63.75
55373;BME280;41249;47.838;16.490;2023-03-04T00:38:03;99543.00;;;-2.22;64.22
55373;BME280;41249;47.838;16.490;2023-03-04T00:40:30;99546.41;;;-2.16;63.51
55373;BME280;41249;47.838;16.490;2023-03-04T00:42:57;99537.00;;;-2.10;63.05
55373;BME280;41249;47.838;16.490;2023-03-04T00:45:23;99534.78;;;-2.08;62.14
55373;BME280;41249;47.838;16.490;2023-03-04T00:47:50;99539.69;;;-1.97;61.87
55373;BME280;41249;47.838;16.490;2023-03-04T00:50:17;99535.81;;;-1.96;61.88
55373;BME280;41249;47.838;16.490;2023-03-04T00:52:43;99528.31;;;-1.99;61.42
55373;BME280;41249;47.838;16.490;2023-03-04T00:55:10;99528.22;;;-2.07;61.27
55373;BME280;41249;47.838;16.490;2023-03-04T00:57:37;99520.56;;;-2.05;61.71
55373;BME280;41249;47.838;16.490;2023-03-04T01:00:04;99525.38;;;-2.02;61.71
55373;BME280;41249;47.838;16.490;2023-03-04T01:02:30;99522.09;;;-2.13;62.06
55373;BME280;41249;47.838;16.490;2023-03-04T01:04:57;99519.59;;;-2.45;62.65
55373;BME280;41249;47.838;16.490;2023-03-04T01:07:24;99514.50;;;-2.60;63.17
55373;BME280;41249;47.838;16.490;2023-03-04T01:09:50;99521.41;;;-2.76;62.52
55373;BME280;41249;47.838;16.490;2023-03-04T01:12:17;99517.59;;;-2.89;62.91
55373;BME280;41249;47.838;16.490;2023-03-04T01:14:44;99511.25;;;-2.98;63.98
55373;BME280;41249;47.838;16.490;2023-03-04T01:17:10;99509.25;;;-3.06;63.45
55373;BME280;41249;47.838;16.490;2023-03-04T01:19:37;99511.56;;;-2.99;63.77
55373;BME280;41249;47.838;16.490;2023-03-04T01:22:04;99509.84;;;-3.09;63.22
55373;BME280;41249;47.838;16.490;2023-03-04T01:24:30;99507.53;;;-3.02;63.12
55373;BME280;41249;47.838;16.490;2023-03-04T01:26:57;99512.56;;;-3.09;63.80
55373;BME280;41249;47.838;16.490;2023-03-04T01:29:24;99509.53;;;-3.08;63.42
55373;BME280;41249;47.838;16.490;2023-03-04T01:31:50;99500.19;;;-3.15;63.27
55373;BME280;41249;47.838;16.490;2023-03-04T01:34:17;99496.09;;;-3.26;64.20
55373;BME280;41249;47.838;16.490;2023-03-04T01:36:43;99496.28;;;-3.23;63.45
55373;BME280;41249;47.838;16.490;2023-03-04T01:39:10;99493.75;;;-3.33;64.60
55373;BME280;41249;47.838;16.490;2023-03-04T01:41:37;99492.63;;;-3.45;64.07
55373;BME280;41249;47.838;16.490;2023-03-04T01:44:03;99488.41;;;-3.65;65.01
55373;BME280;41249;47.838;16.490;2023-03-04T01:46:31;99492.41;;;-3.62;65.33
55373;BME280;41249;47.838;16.490;2023-03-04T01:48:58;99482.28;;;-3.57;65.11
55373;BME280;41249;47.838;16.490;2023-03-04T01:51:25;99479.75;;;-3.67;65.25
55373;BME280;41249;47.838;16.490;2023-03-04T01:53:52;99487.28;;;-3.78;66.12
55373;BME280;41249;47.838;16.490;2023-03-04T01:59:21;99473.66;;;-4.05;66.92
55373;BME280;41249;47.838;16.490;2023-03-04T02:01:53;99479.13;;;-4.23;66.21
55373;BME280;41249;47.838;16.490;2023-03-04T02:04:23;99475.19;;;-4.31;67.16
55373;BME280;41249;47.838;16.490;2023-03-04T02:06:51;99461.13;;;-4.33;66.84
55373;BME280;41249;47.838;16.490;2023-03-04T02:09:18;99468.63;;;-4.44;66.89
55373;BME280;41249;47.838;16.490;2023-03-04T02:11:47;99465.00;;;-4.39;67.12
55373;BME280;41249;47.838;16.490;2023-03-04T02:14:15;99455.72;;;-4.33;67.20
55373;BME280;41249;47.838;16.490;2023-03-04T02:16:42;99457.28;;;-4.13;66.82
55373;BME280;41249;47.838;16.490;2023-03-04T02:19:36;99447.94;;;-4.07;67.32
55373;BME280;41249;47.838;16.490;2023-03-04T02:22:07;99450.53;;;-4.16;67.52
55373;BME280;41249;47.838;16.490;2023-03-04T02:27:00;99455.16;;;-4.49;67.17
55373;BME280;41249;47.838;16.490;2023-03-04T02:29:27;99455.38;;;-4.64;67.81
55373;BME280;41249;47.838;16.490;2023-03-04T02:31:54;99446.09;;;-4.76;68.30
55373;BME280;41249;47.838;16.490;2023-03-04T02:34:23;99443.75;;;-4.83;68.52
55373;BME280;41249;47.838;16.490;2023-03-04T02:36:52;99446.81;;;-4.89;68.22
55373;BME280;41249;47.838;16.490;2023-03-04T02:41:47;99434.91;;;-4.88;68.11
55373;BME280;41249;47.838;16.490;2023-03-04T02:44:22;99434.50;;;-4.82;68.57
55373;BME280;41249;47.838;16.490;2023-03-04T02:46:50;99431.06;;;-4.87;68.10
55373;BME280;41249;47.838;16.490;2023-03-04T02:49:18;99434.53;;;-5.01;69.66
55373;BME280;41249;47.838;16.490;2023-03-04T02:51:45;99426.47;;;-5.06;69.32
55373;BME280;41249;47.838;16.490;2023-03-04T02:54:16;99424.03;;;-5.07;69.96
55373;BME280;41249;47.838;16.490;2023-03-04T02:56:51;99427.69;;;-5.17;69.86
55373;BME280;41249;47.838;16.490;2023-03-04T02:59:20;99418.41;;;-5.29;68.96
55373;BME280;41249;47.838;16.490;2023-03-04T03:01:47;99414.75;;;-5.38;69.09
55373;BME280;41249;47.838;16.490;2023-03-04T03:04:14;99413.91;;;-5.39;70.39
55373;BME280;41249;47.838;16.490;2023-03-04T03:06:41;99406.97;;;-5.45;73.41
55373;BME280;41249;47.838;16.490;2023-03-04T03:09:08;99408.56;;;-5.44;73.41
55373;BME280;41249;47.838;16.490;2023-03-04T03:11:35;99401.34;;;-5.48;70.76
55373;BME280;41249;47.838;16.490;2023-03-04T03:14:02;99408.25;;;-5.61;70.86
55373;BME280;41249;47.838;16.490;2023-03-04T03:16:28;99398.94;;;-5.74;71.10
55373;BME280;41249;47.838;16.490;2023-03-04T03:18:55;99397.63;;;-5.76;71.88
55373;BME280;41249;47.838;16.490;2023-03-04T03:21:22;99399.50;;;-5.77;71.87
55373;BME280;41249;47.838;16.490;2023-03-04T03:23:49;99406.88;;;-5.82;71.55
55373;BME280;41249;47.838;16.490;2023-03-04T03:26:15;99400.13;;;-5.85;71.07
55373;BME280;41249;47.838;16.490;2023-03-04T03:28:42;99390.19;;;-5.89;71.87
55373;BME280;41249;47.838;16.490;2023-03-04T03:31:09;99386.47;;;-5.93;71.19
55373;BME280;41249;47.838;16.490;2023-03-04T03:33:36;99391.63;;;-5.97;70.95
55373;BME280;41249;47.838;16.490;2023-03-04T03:36:03;99378.72;;;-6.00;71.90
55373;BME280;41249;47.838;16.490;2023-03-04T03:38:30;99385.19;;;-6.01;71.31
55373;BME280;41249;47.838;16.490;2023-03-04T03:40:56;99389.56;;;-6.05;72.02
55373;BME280;41249;47.838;16.490;2023-03-04T03:43:23;99375.47;;;-6.02;71.70
55373;BME280;41249;47.838;16.490;2023-03-04T03:45:50;99380.66;;;-6.05;73.43
55373;BME280;41249;47.838;16.490;2023-03-04T03:48:17;99375.25;;;-6.05;72.69
55373;BME280;41249;47.838;16.490;2023-03-04T03:50:44;99368.84;;;-6.14;72.94
55373;BME280;41249;47.838;16.490;2023-03-04T03:53:11;99364.25;;;-6.14;71.77
55373;BME280;41249;47.838;16.490;2023-03-04T03:55:37;99370.50;;;-6.18;73.56
55373;BME280;41249;47.838;16.490;2023-03-04T03:58:05;99363.28;;;-6.23;71.68
55373;BME280;41249;47.838;16.490;2023-03-04T04:00:31;99356.03;;;-6.27;72.90
55373;BME280;41249;47.838;16.490;2023-03-04T04:02:59;99363.53;;;-6.24;72.15
55373;BME280;41249;47.838;16.490;2023-03-04T04:05:26;99356.03;;;-6.27;72.71
55373;BME280;41249;47.838;16.490;2023-03-04T04:07:53;99352.78;;;-6.30;73.22
55373;BME280;41249;47.838;16.490;2023-03-04T04:10:19;99358.13;;;-6.24;72.65
55373;BME280;41249;47.838;16.490;2023-03-04T04:12:47;99350.03;;;-6.24;72.77
55373;BME280;41249;47.838;16.490;2023-03-04T04:15:13;99358.72;;;-6.27;73.77
55373;BME280;41249;47.838;16.490;2023-03-04T04:17:40;99350.13;;;-6.35;72.63
55373;BME280;41249;47.838;16.490;2023-03-04T04:20:07;99351.19;;;-6.31;73.84
55373;BME280;41249;47.838;16.490;2023-03-04T04:22:34;99358.47;;;-6.31;74.17
55373;BME280;41249;47.838;16.490;2023-03-04T04:25:00;99357.97;;;-6.33;73.37
55373;BME280;41249;47.838;16.490;2023-03-04T04:27:27;99354.41;;;-6.28;76.67
55373;BME280;41249;47.838;16.490;2023-03-04T04:29:54;99343.50;;;-6.18;78.12
55373;BME280;41249;47.838;16.490;2023-03-04T04:32:20;99341.88;;;-6.19;77.68
55373;BME280;41249;47.838;16.490;2023-03-04T04:34:47;99337.06;;;-6.22;77.61
55373;BME280;41249;47.838;16.490;2023-03-04T04:37:13;99336.41;;;-6.14;77.71
55373;BME280;41249;47.838;16.490;2023-03-04T04:39:40;99346.09;;;-6.08;77.24
55373;BME280;41249;47.838;16.490;2023-03-04T04:42:09;99335.91;;;-6.16;75.66
55373;BME280;41249;47.838;16.490;2023-03-04T04:44:36;99339.38;;;-6.11;75.75
55373;BME280;41249;47.838;16.490;2023-03-04T04:47:05;99350.31;;;-5.97;77.37
55373;BME280;41249;47.838;16.490;2023-03-04T04:49:32;99337.75;;;-5.88;76.68
55373;BME280;41249;47.838;16.490;2023-03-04T04:51:59;99332.41;;;-5.93;76.75
55373;BME280;41249;47.838;16.490;2023-03-04T04:54:25;99341.91;;;-5.96;75.81
55373;BME280;41249;47.838;16.490;2023-03-04T04:56:52;99334.53;;;-5.90;76.18
55373;BME280;41249;47.838;16.490;2023-03-04T04:59:19;99345.72;;;-6.02;75.82
55373;BME280;41249;47.838;16.490;2023-03-04T05:01:46;99339.31;;;-6.06;74.62
55373;BME280;41249;47.838;16.490;2023-03-04T05:04:13;99345.22;;;-6.04;75.29
55373;BME280;41249;47.838;16.490;2023-03-04T05:06:40;99337.63;;;-6.02;75.79
55373;BME280;41249;47.838;16.490;2023-03-04T05:09:07;99340.13;;;-6.05;75.32
55373;BME280;41249;47.838;16.490;2023-03-04T05:11:33;99342.31;;;-6.07;75.58
55373;BME280;41249;47.838;16.490;2023-03-04T05:14:00;99340.69;;;-6.08;75.29
55373;BME280;41249;47.838;16.490;2023-03-04T05:16:27;99345.06;;;-6.12;75.77
55373;BME280;41249;47.838;16.490;2023-03-04T05:18:53;99338.84;;;-6.13;74.88
55373;BME280;41249;47.838;16.490;2023-03-04T05:21:20;99344.53;;;-6.14;75.41
55373;BME280;41249;47.838;16.490;2023-03-04T05:23:46;99338.59;;;-6.16;75.03
55373;BME280;41249;47.838;16.490;2023-03-04T05:26:15;99345.13;;;-6.17;76.13
55373;BME280;41249;47.838;16.490;2023-03-04T05:28:42;99347.28;;;-6.19;75.70
55373;BME280;41249;47.838;16.490;2023-03-04T05:31:09;99343.50;;;-6.18;75.58
55373;BME280;41249;47.838;16.490;2023-03-04T05:33:36;99341.56;;;-6.13;74.89
55373;BME280;41249;47.838;16.490;2023-03-04T05:36:04;99344.72;;;-6.06;75.26
55373;BME280;41249;47.838;16.490;2023-03-04T05:38:31;99346.53;;;-6.01;75.18
55373;BME280;41249;47.838;16.490;2023-03-04T05:41:03;99338.69;;;-5.98;75.77
55373;BME280;41249;47.838;16.490;2023-03-04T05:43:31;99346.94;;;-5.89;75.86
55373;BME280;41249;47.838;16.490;2023-03-04T05:45:59;99343.72;;;-5.68;75.82
55373;BME280;41249;47.838;16.490;2023-03-04T05:48:26;99344.56;;;-5.72;75.49
55373;BME280;41249;47.838;16.490;2023-03-04T05:50:59;99340.84;;;-5.76;75.98
55373;BME280;41249;47.838;16.490;2023-03-04T05:53:26;99340.78;;;-5.71;76.09
55373;BME280;41249;47.838;16.490;2023-03-04T05:55:54;99340.13;;;-5.63;75.52
55373;BME280;41249;47.838;16.490;2023-03-04T05:58:21;99343.78;;;-5.54;77.56
55373;BME280;41249;47.838;16.490;2023-03-04T06:00:48;99341.84;;;-5.48;78.35
55373;BME280;41249;47.838;16.490;2023-03-04T06:03:20;99342.19;;;-5.36;78.12
55373;BME280;41249;47.838;16.490;2023-03-04T06:05:48;99343.38;;;-5.24;76.95
55373;BME280;41249;47.838;16.490;2023-03-04T06:08:14;99336.81;;;-5.18;77.48
55373;BME280;41249;47.838;16.490;2023-03-04T06:10:41;99339.38;;;-5.08;77.13
55373;BME280;41249;47.838;16.490;2023-03-04T06:13:08;99344.91;;;-4.99;77.14
55373;BME280;41249;47.838;16.490;2023-03-04T06:15:37;99343.56;;;-4.83;77.46
55373;BME280;41249;47.838;16.490;2023-03-04T06:18:06;99342.22;;;-4.67;77.06
55373;BME280;41249;47.838;16.490;2023-03-04T06:20:32;99355.19;;;-4.50;76.57
55373;BME280;41249;47.838;16.490;2023-03-04T06:22:59;99350.91;;;-4.38;75.90
55373;BME280;41249;47.838;16.490;2023-03-04T06:25:26;99356.34;;;-4.24;74.16
55373;BME280;41249;47.838;16.490;2023-03-04T06:27:52;99359.56;;;-4.22;74.29
55373;BME280;41249;47.838;16.490;2023-03-04T06:30:20;99350.75;;;-4.14;74.72
55373;BME280;41249;47.838;16.490;2023-03-04T06:32:47;99352.59;;;-3.96;74.28
55373;BME280;41249;47.838;16.490;2023-03-04T06:35:15;99356.81;;;-3.76;74.06
55373;BME280;41249;47.838;16.490;2023-03-04T06:37:42;99359.59;;;-3.67;72.98
55373;BME280;41249;47.838;16.490;2023-03-04T06:40:09;99360.78;;;-3.46;73.03
55373;BME280;41249;47.838;16.490;2023-03-04T06:42:36;99370.31;;;-3.35;71.98
55373;BME280;41249;47.838;16.490;2023-03-04T06:45:03;99374.41;;;-3.24;71.98
55373;BME280;41249;47.838;16.490;2023-03-04T06:47:30;99373.66;;;-3.03;71.63
55373;BME280;41249;47.838;16.490;2023-03-04T06:49:57;99378.94;;;-2.84;71.52
55373;BME280;41249;47.838;16.490;2023-03-04T06:52:23;99377.91;;;-2.74;70.91
55373;BME280;41249;47.838;16.490;2023-03-04T06:54:50;99374.97;;;-2.56;71.01
55373;BME280;41249;47.838;16.490;2023-03-04T06:57:17;99368.56;;;-2.38;70.16
55373;BME280;41249;47.838;16.490;2023-03-04T06:59:43;99371.50;;;-2.25;70.00
55373;BME280;41249;47.838;16.490;2023-03-04T07:02:11;99373.81;;;-2.10;69.64
55373;BME280;41249;47.838;16.490;2023-03-04T07:04:39;99372.66;;;-1.87;70.14
55373;BME280;41249;47.838;16.490;2023-03-04T07:07:06;99379.59;;;-1.81;69.75
55373;BME280;41249;47.838;16.490;2023-03-04T07:09:33;99379.44;;;-1.76;69.67
55373;BME280;41249;47.838;16.490;2023-03-04T07:11:59;99383.47;;;-1.65;68.99
55373;BME280;41249;47.838;16.490;2023-03-04T07:14:26;99379.16;;;-1.57;68.36
55373;BME280;41249;47.838;16.490;2023-03-04T07:16:53;99383.41;;;-1.34;68.26
55373;BME280;41249;47.838;16.490;2023-03-04T07:19:20;99380.53;;;-1.29;67.87
55373;BME280;41249;47.838;16.490;2023-03-04T07:21:47;99371.59;;;-1.04;67.25
55373;BME280;41249;47.838;16.490;2023-03-04T07:24:14;99378.16;;;-0.71;67.26
55373;BME280;41249;47.838;16.490;2023-03-04T07:26:40;99378.16;;;-0.45;66.84
55373;BME280;41249;47.838;16.490;2023-03-04T07:29:07;99372.97;;;-0.21;66.35
55373;BME280;41249;47.838;16.490;2023-03-04T07:31:34;99374.53;;;-0.03;66.13
55373;BME280;41249;47.838;16.490;2023-03-04T07:34:06;99369.66;;;0.11;66.04
55373;BME280;41249;47.838;16.490;2023-03-04T07:36:35;99377.03;;;0.19;65.24
55373;BME280;41249;47.838;16.490;2023-03-04T07:39:03;99380.69;;;0.23;65.42
55373;BME280;41249;47.838;16.490;2023-03-04T07:41:30;99371.03;;;0.26;65.74
55373;BME280;41249;47.838;16.490;2023-03-04T07:43:58;99368.56;;;0.42;65.79
55373;BME280;41249;47.838;16.490;2023-03-04T07:46:24;99364.19;;;0.49;65.78
55373;BME280;41249;47.838;16.490;2023-03-04T07:48:51;99366.91;;;0.58;66.27
55373;BME280;41249;47.838;16.490;2023-03-04T07:51:20;99364.53;;;0.48;66.11
55373;BME280;41249;47.838;16.490;2023-03-04T07:53:49;99365.81;;;0.12;66.70
55373;BME280;41249;47.838;16.490;2023-03-04T07:56:20;99364.75;;;-0.04;66.82
55373;BME280;41249;47.838;16.490;2023-03-04T07:58:47;99364.16;;;-0.18;67.08
55373;BME280;41249;47.838;16.490;2023-03-04T08:01:17;99362.41;;;-0.31;66.70
55373;BME280;41249;47.838;16.490;2023-03-04T08:03:44;99364.97;;;-0.26;66.95
55373;BME280;41249;47.838;16.490;2023-03-04T08:06:13;99365.59;;;-0.20;67.35
55373;BME280;41249;47.838;16.490;2023-03-04T08:08:40;99363.06;;;-0.34;67.49
55373;BME280;41249;47.838;16.490;2023-03-04T08:11:11;99355.66;;;-0.25;67.17
55373;BME280;41249;47.838;16.490;2023-03-04T08:13:38;99366.56;;;0.21;66.64
55373;BME280;41249;47.838;16.490;2023-03-04T08:16:06;99366.53;;;0.68;65.71
55373;BME280;41249;47.838;16.490;2023-03-04T08:18:33;99364.31;;;1.11;65.57
55373;BME280;41249;47.838;16.490;2023-03-04T08:20:59;99357.63;;;1.41;64.62
55373;BME280;41249;47.838;16.490;2023-03-04T08:23:26;99357.72;;;1.66;64.65
55373;BME280;41249;47.838;16.490;2023-03-04T08:25:53;99363.06;;;1.95;63.88
55373;BME280;41249;47.838;16.490;2023-03-04T08:28:20;99363.06;;;2.07;62.52
55373;BME280;41249;47.838;16.490;2023-03-04T08:30:52;99363.53;;;2.21;62.06
55373;BME280;41249;47.838;16.490;2023-03-04T08:33:19;99355.34;;;2.69;62.64
55373;BME280;41249;47.838;16.490;2023-03-04T08:35:45;99358.75;;;2.66;61.46
55373;BME280;41249;47.838;16.490;2023-03-04T08:38:12;99350.53;;;2.78;61.80
55373;BME280;41249;47.838;16.490;2023-03-04T08:40:39;99358.63;;;2.87;60.65
55373;BME280;41249;47.838;16.490;2023-03-04T08:43:05;99362.13;;;3.12;60.58
55373;BME280;41249;47.838;16.490;2023-03-04T08:45:32;99364.38;;;3.34;59.99
55373;BME280;41249;47.838;16.490;2023-03-04T08:47:58;99356.41;;;3.29;60.72
55373;BME280;41249;47.838;16.490;2023-03-04T08:50:25;99359.28;;;3.48;60.45
55373;BME280;41249;47.838;16.490;2023-03-04T08:52:52;99351.66;;;3.69;59.55
55373;BME280;41249;47.838;16.490;2023-03-04T08:55:19;99348.84;;;3.81;59.21
55373;BME280;41249;47.838;16.490;2023-03-04T08:57:46;99348.16;;;3.84;58.84
55373;BME280;41249;47.838;16.490;2023-03-04T09:00:13;99349.66;;;3.97;59.20
55373;BME280;41249;47.838;16.490;2023-03-04T09:02:39;99344.81;;;4.06;59.38
55373;BME280;41249;47.838;16.490;2023-03-04T09:05:06;99341.09;;;4.15;58.96
55373;BME280;41249;47.838;16.490;2023-03-04T09:07:33;99349.25;;;4.27;58.89
55373;BME280;41249;47.838;16.490;2023-03-04T09:10:00;99340.22;;;4.42;58.39
55373;BME280;41249;47.838;16.490;2023-03-04T09:12:26;99342.06;;;4.38;57.89
55373;BME280;41249;47.838;16.490;2023-03-04T09:14:53;99337.09;;;4.43;57.95
55373;BME280;41249;47.838;16.490;2023-03-04T09:17:36;99332.88;;;4.65;58.01
55373;BME280;41249;47.838;16.490;2023-03-04T09:20:03;99328.03;;;4.93;57.26
55373;BME280;41249;47.838;16.490;2023-03-04T09:22:30;99323.91;;;5.18;57.80
55373;BME280;41249;47.838;16.490;2023-03-04T09:24:57;99333.06;;;5.42;56.95
55373;BME280;41249;47.838;16.490;2023-03-04T09:27:23;99314.78;;;5.33;56.38
55373;BME280;41249;47.838;16.490;2023-03-04T09:29:50;99317.38;;;5.46;56.67
55373;BME280;41249;47.838;16.490;2023-03-04T09:32:16;99326.16;;;5.51;56.89
55373;BME280;41249;47.838;16.490;2023-03-04T09:34:43;99314.31;;;5.70;55.80
55373;BME280;41249;47.838;16.490;2023-03-04T09:37:10;99314.59;;;5.84;55.59
55373;BME280;41249;47.838;16.490;2023-03-04T09:39:36;99318.19;;;5.88;54.54
55373;BME280;41249;47.838;16.490;2023-03-04T09:42:05;99316.09;;;5.59;54.28
55373;BME280;41249;47.838;16.490;2023-03-04T09:44:41;99313.97;;;5.71;54.57
55373;BME280;41249;47.838;16.490;2023-03-04T09:47:15;99301.91;;;6.02;54.82
55373;BME280;41249;47.838;16.490;2023-03-04T09:49:46;99304.94;;;6.42;54.34
55373;BME280;41249;47.838;16.490;2023-03-04T09:58:13;99295.13;;;6.94;52.54
55373;BME280;41249;47.838;16.490;2023-03-04T10:00:45;99276.81;;;7.12;52.57
55373;BME280;41249;47.838;16.490;2023-03-04T10:03:17;99288.50;;;7.32;51.80
55373;BME280;41249;47.838;16.490;2023-03-04T10:05:52;99293.41;;;7.45;50.73
55373;BME280;41249;47.838;16.490;2023-03-04T10:10:53;99282.88;;;7.94;46.17
55373;BME280;41249;47.838;16.490;2023-03-04T10:13:30;99275.63;;;8.20;38.89
55373;BME280;41249;47.838;16.490;2023-03-04T10:16:00;99262.25;;;8.29;41.45
55373;BME280;41249;47.838;16.490;2023-03-04T10:18:38;99270.41;;;8.62;39.07
55373;BME280;41249;47.838;16.490;2023-03-04T10:21:19;99263.38;;;8.79;41.59
55373;BME280;41249;47.838;16.490;2023-03-04T10:23:48;99258.38;;;8.98;40.82
55373;BME280;41249;47.838;16.490;2023-03-04T10:26:17;99249.94;;;8.77;38.06
55373;BME280;41249;47.838;16.490;2023-03-04T10:28:46;99255.41;;;8.63;39.47
55373;BME280;41249;47.838;16.490;2023-03-04T10:31:29;99244.44;;;8.84;39.39
55373;BME280;41249;47.838;16.490;2023-03-04T10:33:59;99240.63;;;9.10;39.21
55373;BME280;41249;47.838;16.490;2023-03-04T10:39:02;99233.25;;;8.63;36.71
55373;BME280;41249;47.838;16.490;2023-03-04T10:41:31;99228.13;;;8.69;38.10
55373;BME280;41249;47.838;16.490;2023-03-04T10:44:04;99219.88;;;8.72;37.68
55373;BME280;41249;47.838;16.490;2023-03-04T10:46:38;99217.03;;;8.62;38.56
55373;BME280;41249;47.838;16.490;2023-03-04T10:49:05;99228.59;;;8.81;38.06
55373;BME280;41249;47.838;16.490;2023-03-04T10:51:32;99202.53;;;8.82;38.53
55373;BME280;41249;47.838;16.490;2023-03-04T10:54:09;99213.47;;;8.61;37.02
55373;BME280;41249;47.838;16.490;2023-03-04T10:56:52;99204.44;;;8.68;37.86
55373;BME280;41249;47.838;16.490;2023-03-04T10:59:47;99219.91;;;8.76;36.80
55373;BME280;41249;47.838;16.490;2023-03-04T11:02:26;99202.50;;;8.79;36.75
55373;BME280;41249;47.838;16.490;2023-03-04T11:07:54;99202.31;;;8.43;36.44
55373;BME280;41249;47.838;16.490;2023-03-04T11:10:29;99185.28;;;8.38;36.90
55373;BME280;41249;47.838;16.490;2023-03-04T11:13:20;99205.88;;;8.47;36.92
55373;BME280;41249;47.838;16.490;2023-03-04T11:16:22;99165.31;;;8.76;37.28
55373;BME280;41249;47.838;16.490;2023-03-04T11:18:50;99176.34;;;8.66;35.62
55373;BME280;41249;47.838;16.490;2023-03-04T11:21:23;99183.81;;;8.58;35.76
55373;BME280;41249;47.838;16.490;2023-03-04T11:23:55;99177.81;;;8.45;36.56
55373;BME280;41249;47.838;16.490;2023-03-04T11:26:39;99174.34;;;8.63;36.19
55373;BME280;41249;47.838;16.490;2023-03-04T11:29:24;99176.41;;;8.80;37.13
55373;BME280;41249;47.838;16.490;2023-03-04T11:31:59;99180.34;;;8.75;35.96
55373;BME280;41249;47.838;16.490;2023-03-04T11:34:55;99175.19;;;8.70;36.82
55373;BME280;41249;47.838;16.490;2023-03-04T11:40:36;99168.41;;;8.61;36.00
55373;BME280;41249;47.838;16.490;2023-03-04T11:43:15;99160.06;;;8.50;36.64
55373;BME280;41249;47.838;16.490;2023-03-04T11:54:03;99150.91;;;8.39;35.95
55373;BME280;41249;47.838;16.490;2023-03-04T11:56:44;99160.75;;;8.33;36.57
55373;BME280;41249;47.838;16.490;2023-03-04T12:01:55;99155.63;;;8.35;36.63
55373;BME280;41249;47.838;16.490;2023-03-04T12:10:35;99144.75;;;8.77;35.11
55373;BME280;41249;47.838;16.490;2023-03-04T12:46:40;99110.97;;;8.33;34.97
55373;BME280;41249;47.838;16.490;2023-03-04T12:53:10;99125.59;;;8.37;33.80
55373;BME280;41249;47.838;16.490;2023-03-04T12:55:13;99101.84;;;8.29;34.21
55373;BME280;41249;47.838;16.490;2023-03-04T12:57:41;99092.72;;;8.18;35.02
55373;BME280;41249;47.838;16.490;2023-03-04T13:08:57;99090.56;;;7.93;34.15
55373;BME280;41249;47.838;16.490;2023-03-04T13:14:25;99098.50;;;7.99;33.40
55373;BME280;41249;47.838;16.490;2023-03-04T13:17:00;99095.09;;;8.16;34.31
55373;BME280;41249;47.838;16.490;2023-03-04T13:19:48;99097.44;;;8.17;34.02
55373;BME280;41249;47.838;16.490;2023-03-04T13:22:41;99089.94;;;8.18;32.50
55373;BME280;41249;47.838;16.490;2023-03-04T13:35:46;99079.44;;;7.86;32.33
55373;BME280;41249;47.838;16.490;2023-03-04T13:43:57;99081.66;;;8.18;33.70
55373;BME280;41249;47.838;16.490;2023-03-04T13:51:30;99086.84;;;7.72;33.39
55373;BME280;41249;47.838;16.490;2023-03-04T13:56:41;99059.41;;;7.42;33.25
55373;BME280;41249;47.838;16.490;2023-03-04T14:01:56;99070.34;;;7.28;33.61
55373;BME280;41249;47.838;16.490;2023-03-04T14:04:27;99052.94;;;7.24;33.13
55373;BME280;41249;47.838;16.490;2023-03-04T14:06:56;99088.47;;;7.29;33.03
55373;BME280;41249;47.838;16.490;2023-03-04T14:09:31;99055.66;;;7.20;33.42
55373;BME280;41249;47.838;16.490;2023-03-04T14:12:02;99055.28;;;7.22;33.11
55373;BME280;41249;47.838;16.490;2023-03-04T14:14:50;99054.53;;;7.25;33.99
55373;BME280;41249;47.838;16.490;2023-03-04T14:17:36;99053.06;;;7.38;33.33
55373;BME280;41249;47.838;16.490;2023-03-04T14:20:04;99047.50;;;7.35;34.05
55373;BME280;41249;47.838;16.490;2023-03-04T14:22:38;99044.50;;;7.54;33.09
55373;BME280;41249;47.838;16.490;2023-03-04T14:25:14;99044.44;;;7.47;34.10
55373;BME280;41249;47.838;16.490;2023-03-04T14:27:45;99043.06;;;7.23;33.35
55373;BME280;41249;47.838;16.490;2023-03-04T14:30:31;99052.81;;;7.10;31.93
55373;BME280;41249;47.838;16.490;2023-03-04T14:33:14;99062.34;;;7.16;31.97
55373;BME280;41249;47.838;16.490;2023-03-04T14:35:48;99043.22;;;6.97;33.00
55373;BME280;41249;47.838;16.490;2023-03-04T14:41:15;99056.94;;;6.90;33.18
55373;BME280;41249;47.838;16.490;2023-03-04T14:46:29;99045.56;;;6.95;34.32
55373;BME280;41249;47.838;16.490;2023-03-04T14:48:58;99029.06;;;6.98;34.03
55373;BME280;41249;47.838;16.490;2023-03-04T14:51:37;99039.53;;;6.82;33.23
55373;BME280;41249;47.838;16.490;2023-03-04T14:54:04;99020.91;;;6.72;33.33
55373;BME280;41249;47.838;16.490;2023-03-04T14:56:34;99039.44;;;6.72;33.02
55373;BME280;41249;47.838;16.490;2023-03-04T14:59:02;99037.63;;;6.53;33.86
55373;BME280;41249;47.838;16.490;2023-03-04T15:01:35;99036.47;;;6.57;34.01
55373;BME280;41249;47.838;16.490;2023-03-04T15:04:04;99039.66;;;6.59;33.31
55373;BME280;41249;47.838;16.490;2023-03-04T15:06:36;99049.47;;;6.57;34.14
55373;BME280;41249;47.838;16.490;2023-03-04T15:09:23;99022.56;;;6.47;34.09